Time;durP1;ratioP1;P1;durP2;ratioP2;P2;SDS_P1;SDS_P2;PMS_P1;PMS_P2;Temp;Humidity;BMP_temperature;BMP_pressure;BME280_temperature;BME280_humidity;BME280_pressure;Samples;Min_cycle;Max_cycle;Signal;HPM_P1;HPM_P2
2022/06/20 00:00:47;;;;;;;6.07;1.00;;;;;;;;;;5063539;28;20135;-58
2022/06/20 00:03:20;;;;;;;4.68;0.85;;;;;;;;;;5063927;28;20048;-57
2022/06/20 00:05:47;;;;;;;4.90;0.80;;;;;;;;;;5064448;28;20044;-57
2022/06/20 00:08:13;;;;;;;6.15;1.48;;;;;;;;;;5064851;28;20480;-57
2022/06/20 00:10:40;;;;;;;4.78;1.02;;;;;;;;;;5063896;28;20055;-58
2022/06/20 00:13:06;;;;;;;10.85;1.27;;;;;;;;;;5064380;28;20129;-57
2022/06/20 00:15:35;;;;;;;4.45;0.90;;;;;;;;;;5064052;28;20037;-57
2022/06/20 00:18:02;;;;;;;3.58;0.65;;;;;;;;;;5063326;28;20631;-57
2022/06/20 00:20:29;;;;;;;3.60;1.10;;;;;;;;;;5060060;28;20045;-57
2022/06/20 00:22:56;;;;;;;9.43;1.25;;;;;;;;;;5064321;28;20041;-58
2022/06/20 00:25:22;;;;;;;8.80;1.10;;;;;;;;;;5061546;28;20064;-57
2022/06/20 00:27:48;;;;;;;5.53;1.20;;;;;;;;;;5063523;28;20052;-58
2022/06/20 00:30:16;;;;;;;7.00;1.10;;;;;;;;;;5064271;28;20486;-57
2022/06/20 00:32:43;;;;;;;3.08;0.80;;;;;;;;;;5063254;28;20056;-57
2022/06/20 00:35:10;;;;;;;3.65;1.30;;;;;;;;;;5062824;28;20398;-57
2022/06/20 00:37:36;;;;;;;5.55;0.82;;;;;;;;;;5061348;28;20832;-58
2022/06/20 00:40:03;;;;;;;4.32;1.05;;;;;;;;;;5062959;28;20068;-57
2022/06/20 00:42:30;;;;;;;2.95;1.02;;;;;;;;;;5062588;28;20077;-57
2022/06/20 00:44:57;;;;;;;3.50;1.13;;;;;;;;;;5063432;28;20052;-57
2022/06/20 00:47:26;;;;;;;3.95;0.93;;;;;;;;;;5062914;28;20098;-57
2022/06/20 00:49:52;;;;;;;;;;;;;;;;;;5063380;28;20048;-58
2022/06/20 00:52:22;;;;;;;6.45;0.98;;;;;;;;;;5063893;28;19920;-57
2022/06/20 00:54:55;;;;;;;7.72;1.15;;;;;;;;;;5063311;28;20464;-58
2022/06/20 00:57:28;;;;;;;6.53;1.67;;;;;;;;;;5060377;28;20513;-58
2022/06/20 00:59:59;;;;;;;6.53;1.30;;;;;;;;;;5063655;28;20048;-57
2022/06/20 01:02:27;;;;;;;4.57;1.40;;;;;;;;;;5062045;28;20673;-57
2022/06/20 01:04:56;;;;;;;6.90;1.20;;;;;;;;;;5063199;28;20045;-57
2022/06/20 01:07:24;;;;;;;6.13;1.30;;;;;;;;;;5062316;28;20040;-57
2022/06/20 01:09:50;;;;;;;;;;;;;;;;;;5063650;28;20132;-58
2022/06/20 01:12:18;;;;;;;5.45;0.98;;;;;;;;;;5065631;28;20003;-58
2022/06/20 01:14:44;;;;;;;6.47;1.05;;;;;;;;;;5062677;22;20045;-60
2022/06/20 01:17:13;;;;;;;5.05;1.30;;;;;;;;;;5045946;28;20052;-60
2022/06/20 01:19:48;;;;;;;6.72;1.30;;;;;;;;;;5032208;28;20049;-60
2022/06/20 01:22:24;;;;;;;5.65;1.15;;;;;;;;;;5045780;28;20041;-60
2022/06/20 01:25:00;;;;;;;6.50;1.20;;;;;;;;;;5043866;28;20792;-60
2022/06/20 01:27:33;;;;;;;10.02;1.42;;;;;;;;;;5043352;28;20056;-60
2022/06/20 01:29:59;;;;;;;6.68;2.33;;;;;;;;;;5045095;28;20056;-60
2022/06/20 01:32:25;;;;;;;7.97;1.33;;;;;;;;;;5044998;28;20489;-60
2022/06/20 01:34:51;;;;;;;4.88;1.33;;;;;;;;;;5044292;28;20043;-60
2022/06/20 01:37:25;;;;;;;3.80;1.20;;;;;;;;;;5046146;28;20036;-60
2022/06/20 01:39:53;;;;;;;6.65;1.90;;;;;;;;;;5042617;28;20049;-60
2022/06/20 01:42:20;;;;;;;10.52;1.33;;;;;;;;;;5047546;28;20044;-60
2022/06/20 01:44:48;;;;;;;6.78;1.63;;;;;;;;;;5043635;28;20068;-59
2022/06/20 01:47:14;;;;;;;10.90;1.50;;;;;;;;;;5046683;28;20048;-60
2022/06/20 01:49:42;;;;;;;8.32;1.48;;;;;;;;;;5044828;28;20037;-60
2022/06/20 01:52:12;;;;;;;8.67;1.50;;;;;;;;;;5044494;28;20037;-60
2022/06/20 01:54:43;;;;;;;6.10;1.35;;;;;;;;;;5042000;28;20045;-60
2022/06/20 01:57:10;;;;;;;3.13;1.30;;;;;;;;;;5041038;28;20163;-60
2022/06/20 01:59:40;;;;;;;5.00;1.67;;;;;;;;;;5041730;28;20200;-60
2022/06/20 02:02:06;;;;;;;6.40;1.92;;;;;;;;;;5040192;28;20049;-60
2022/06/20 02:04:33;;;;;;;6.75;1.60;;;;;;;;;;5041254;28;20098;-60
2022/06/20 02:07:01;;;;;;;6.13;1.60;;;;;;;;;;5042968;28;20044;-60
2022/06/20 02:09:28;;;;;;;13.98;2.25;;;;;;;;;;5041812;28;21063;-60
2022/06/20 02:11:54;;;;;;;8.45;1.52;;;;;;;;;;5042437;28;20037;-60
2022/06/20 02:14:39;;;;;;;9.20;1.67;;;;;;;;;;5041641;28;20191;-60
2022/06/20 02:17:10;;;;;;;6.68;1.70;;;;;;;;;;5041758;28;20094;-60
2022/06/20 02:19:40;;;;;;;7.28;1.42;;;;;;;;;;5041770;28;20758;-60
2022/06/20 02:22:07;;;;;;;7.65;1.60;;;;;;;;;;5042619;28;20060;-60
2022/06/20 02:24:38;;;;;;;5.93;1.65;;;;;;;;;;5041536;28;20075;-60
2022/06/20 02:27:07;;;;;;;7.00;1.73;;;;;;;;;;5045787;28;20037;-60
2022/06/20 02:29:33;;;;;;;4.90;1.52;;;;;;;;;;5043272;28;20048;-60
2022/06/20 02:32:03;;;;;;;4.80;1.73;;;;;;;;;;5044752;28;20553;-60
2022/06/20 02:34:30;;;;;;;10.50;2.28;;;;;;;;;;5042167;28;20045;-60
2022/06/20 02:36:59;;;;;;;5.25;1.60;;;;;;;;;;5041289;28;20544;-60
2022/06/20 02:39:26;;;;;;;5.25;1.65;;;;;;;;;;5041426;28;20045;-60
2022/06/20 02:41:54;;;;;;;9.48;1.70;;;;;;;;;;5041732;28;20048;-60
2022/06/20 02:44:21;;;;;;;8.15;1.90;;;;;;;;;;5041841;28;20139;-60
2022/06/20 02:46:48;;;;;;;3.70;1.55;;;;;;;;;;5039659;28;20037;-60
2022/06/20 02:49:16;;;;;;;7.78;1.75;;;;;;;;;;5042305;28;20076;-60
2022/06/20 02:51:47;;;;;;;15.55;2.00;;;;;;;;;;5043123;28;20127;-60
2022/06/20 02:54:14;;;;;;;4.82;1.83;;;;;;;;;;5041843;28;20079;-60
2022/06/20 02:56:44;;;;;;;7.30;1.88;;;;;;;;;;5041144;28;20026;-60
2022/06/20 02:59:14;;;;;;;9.30;1.83;;;;;;;;;;5041146;28;20060;-60
2022/06/20 03:01:44;;;;;;;7.13;1.42;;;;;;;;;;5040292;28;20498;-60
2022/06/20 03:04:11;;;;;;;6.93;1.73;;;;;;;;;;5041928;28;20517;-60
2022/06/20 03:06:40;;;;;;;7.18;1.42;;;;;;;;;;5041197;28;20061;-60
2022/06/20 03:09:06;;;;;;;7.63;1.40;;;;;;;;;;5041588;28;20087;-59
2022/06/20 03:11:36;;;;;;;3.38;1.40;;;;;;;;;;5041316;28;20049;-60
2022/06/20 03:14:03;;;;;;;4.47;1.33;;;;;;;;;;5040250;28;20057;-60
2022/06/20 03:16:30;;;;;;;9.70;2.03;;;;;;;;;;5040318;28;20052;-60
2022/06/20 03:18:58;;;;;;;7.55;1.70;;;;;;;;;;5041649;28;20048;-60
2022/06/20 03:21:26;;;;;;;6.55;1.50;;;;;;;;;;5039559;28;20045;-60
2022/06/20 03:23:52;;;;;;;5.90;1.90;;;;;;;;;;5042840;28;20045;-60
2022/06/20 03:26:20;;;;;;;4.03;1.40;;;;;;;;;;5043524;28;20029;-60
2022/06/20 03:28:46;;;;;;;8.30;2.03;;;;;;;;;;5044212;28;20078;-59
2022/06/20 03:31:13;;;;;;;5.50;1.40;;;;;;;;;;5040654;28;20029;-60
2022/06/20 03:33:40;;;;;;;4.43;1.58;;;;;;;;;;5040049;28;20116;-60
2022/06/20 03:36:09;;;;;;;7.97;1.73;;;;;;;;;;5041329;28;20048;-60
2022/06/20 03:38:36;;;;;;;8.40;2.42;;;;;;;;;;5040063;28;20469;-60
2022/06/20 03:41:04;;;;;;;5.43;1.85;;;;;;;;;;5040649;28;20036;-60
2022/06/20 03:43:30;;;;;;;10.13;1.55;;;;;;;;;;5040398;28;20044;-60
2022/06/20 03:45:59;;;;;;;4.60;1.42;;;;;;;;;;5041328;28;20033;-60
2022/06/20 03:48:32;;;;;;;5.22;1.45;;;;;;;;;;5040531;28;20037;-60
2022/06/20 03:51:01;;;;;;;5.82;1.65;;;;;;;;;;5038195;28;20048;-60
2022/06/20 03:53:29;;;;;;;4.95;1.73;;;;;;;;;;5039767;28;20037;-60
2022/06/20 03:56:00;;;;;;;7.75;1.88;;;;;;;;;;5040346;28;20116;-60
2022/06/20 03:58:32;;;;;;;5.28;1.63;;;;;;;;;;5037316;28;20398;-60
2022/06/20 04:01:10;;;;;;;5.97;1.60;;;;;;;;;;5044470;28;20111;-60
2022/06/20 04:03:41;;;;;;;3.92;1.50;;;;;;;;;;5040855;28;20053;-60
2022/06/20 04:06:17;;;;;;;5.65;1.63;;;;;;;;;;5041305;28;20052;-60
2022/06/20 04:11:35;;;;;;;3.42;1.30;;;;;;;;;;5046871;28;20041;-60
2022/06/20 04:14:04;;;;;;;3.65;1.50;;;;;;;;;;5049467;28;20437;-60
2022/06/20 04:16:32;;;;;;;3.38;1.23;;;;;;;;;;5046733;28;20127;-60
2022/06/20 04:19:08;;;;;;;7.07;1.60;;;;;;;;;;5047208;28;20045;-59
2022/06/20 04:21:47;;;;;;;5.55;1.27;;;;;;;;;;5035297;28;20521;-60
2022/06/20 04:24:14;;;;;;;3.65;1.52;;;;;;;;;;5057999;28;20044;-60
2022/06/20 04:26:43;;;;;;;6.50;1.90;;;;;;;;;;5049939;28;20076;-60
2022/06/20 04:29:19;;;;;;;6.60;1.70;;;;;;;;;;5047304;28;20044;-60
2022/06/20 04:31:49;;;;;;;4.03;1.67;;;;;;;;;;5045241;28;20481;-60
2022/06/20 04:34:19;;;;;;;7.43;2.00;;;;;;;;;;5047668;28;20130;-60
2022/06/20 04:36:50;;;;;;;4.43;1.88;;;;;;;;;;5046937;28;20444;-60
2022/06/20 04:39:16;;;;;;;8.30;1.98;;;;;;;;;;5047046;28;20075;-60
2022/06/20 04:41:52;;;;;;;5.47;2.10;;;;;;;;;;5058224;28;20778;-59
2022/06/20 04:44:29;;;;;;;5.07;1.80;;;;;;;;;;5057437;28;20035;-60
2022/06/20 04:47:10;;;;;;;5.75;1.80;;;;;;;;;;5056122;28;20041;-60
2022/06/20 04:49:37;;;;;;;5.90;1.88;;;;;;;;;;5048249;28;20147;-60
2022/06/20 04:52:04;;;;;;;4.13;1.75;;;;;;;;;;5048296;28;20128;-60
2022/06/20 04:54:30;;;;;;;11.43;2.00;;;;;;;;;;5048333;28;20033;-60
2022/06/20 04:56:56;;;;;;;7.85;2.30;;;;;;;;;;5050709;28;20514;-60
2022/06/20 04:59:26;;;;;;;8.25;2.13;;;;;;;;;;5052060;28;20142;-60
2022/06/20 05:01:53;;;;;;;5.93;1.75;;;;;;;;;;5048573;28;20171;-60
2022/06/20 05:04:37;;;;;;;5.18;1.90;;;;;;;;;;5049418;28;20044;-60
2022/06/20 05:07:07;;;;;;;3.83;1.50;;;;;;;;;;5049768;28;20049;-59
2022/06/20 05:09:36;;;;;;;6.57;1.70;;;;;;;;;;5046422;28;20041;-60
2022/06/20 05:12:08;;;;;;;7.50;2.13;;;;;;;;;;5054598;28;20501;-60
2022/06/20 05:14:38;;;;;;;4.03;1.80;;;;;;;;;;5044880;28;20053;-60
2022/06/20 05:17:05;;;;;;;6.95;2.03;;;;;;;;;;5050759;28;20051;-60
2022/06/20 05:19:36;;;;;;;7.10;1.98;;;;;;;;;;5049379;28;20123;-60
2022/06/20 05:22:04;;;;;;;10.50;2.35;;;;;;;;;;5051145;28;20067;-59
2022/06/20 05:24:33;;;;;;;5.38;2.17;;;;;;;;;;5058219;28;20044;-59
2022/06/20 05:26:59;;;;;;;;;;;;;;;;;;5047873;28;20049;-60
2022/06/20 05:29:33;;;;;;;8.10;2.22;;;;;;;;;;5046245;28;19927;-60
2022/06/20 05:32:02;;;;;;;8.90;2.58;;;;;;;;;;5045014;28;20071;-59
2022/06/20 05:34:33;;;;;;;8.77;2.42;;;;;;;;;;5045726;28;20049;-60
2022/06/20 05:37:03;;;;;;;7.65;2.25;;;;;;;;;;5041645;28;20044;-60
2022/06/20 05:39:42;;;;;;;13.98;2.70;;;;;;;;;;5042238;28;20077;-60
2022/06/20 05:42:11;;;;;;;7.35;1.70;;;;;;;;;;5043160;28;20262;-60
2022/06/20 05:44:37;;;;;;;7.85;1.85;;;;;;;;;;5042433;28;20045;-60
2022/06/20 05:47:05;;;;;;;7.13;2.30;;;;;;;;;;5036789;28;20045;-61
2022/06/20 05:49:33;;;;;;;8.48;2.33;;;;;;;;;;5040357;28;20040;-60
2022/06/20 05:52:00;;;;;;;11.15;2.22;;;;;;;;;;5046835;28;20097;-60
2022/06/20 05:54:29;;;;;;;8.57;2.28;;;;;;;;;;5046848;28;20721;-60
2022/06/20 05:56:58;;;;;;;10.10;2.38;;;;;;;;;;5042915;28;20045;-61
2022/06/20 05:59:24;;;;;;;;;;;;;;;;;;5031893;28;20056;-59
2022/06/20 06:01:50;;;;;;;8.25;2.50;;;;;;;;;;5030339;28;19929;-60
2022/06/20 06:04:25;;;;;;;8.88;2.13;;;;;;;;;;5043247;28;20033;-59
2022/06/20 06:06:54;;;;;;;8.70;2.15;;;;;;;;;;5053227;28;20033;-59
2022/06/20 06:09:25;;;;;;;7.40;2.55;;;;;;;;;;5061560;28;20040;-60
2022/06/20 06:11:55;;;;;;;11.25;2.20;;;;;;;;;;5058980;28;20068;-59
2022/06/20 06:14:22;;;;;;;6.97;2.63;;;;;;;;;;5059246;28;20301;-59
2022/06/20 06:16:52;;;;;;;12.30;2.47;;;;;;;;;;5061630;28;20131;-59
2022/06/20 06:19:19;;;;;;;11.65;2.22;;;;;;;;;;5060490;28;20441;-59
2022/06/20 06:21:47;;;;;;;10.07;2.38;;;;;;;;;;5055200;28;20040;-59
2022/06/20 06:24:15;;;;;;;10.27;2.50;;;;;;;;;;5055210;28;20079;-59
2022/06/20 06:26:42;;;;;;;13.73;2.63;;;;;;;;;;5058200;28;20075;-59
2022/06/20 06:29:14;;;;;;;9.43;2.28;;;;;;;;;;5054720;28;20045;-59
2022/06/20 06:31:41;;;;;;;16.15;3.35;;;;;;;;;;5043798;28;20510;-59
2022/06/20 06:34:22;;;;;;;8.40;2.92;;;;;;;;;;5050245;28;20041;-59
2022/06/20 06:36:51;;;;;;;12.68;2.97;;;;;;;;;;5044329;28;20049;-60
2022/06/20 06:39:26;;;;;;;9.32;2.50;;;;;;;;;;5045753;28;20406;-60
2022/06/20 06:41:55;;;;;;;8.70;2.10;;;;;;;;;;5048378;28;20434;-60
2022/06/20 06:44:28;;;;;;;11.13;2.50;;;;;;;;;;5047754;28;20047;-60
2022/06/20 06:46:54;;;;;;;12.35;2.17;;;;;;;;;;5055450;28;20070;-59
2022/06/20 06:49:36;;;;;;;7.65;1.77;;;;;;;;;;5044618;28;20044;-60
2022/06/20 06:52:07;;;;;;;7.85;2.35;;;;;;;;;;5042542;28;20106;-59
2022/06/20 06:54:42;;;;;;;5.10;2.35;;;;;;;;;;5051957;28;20862;-59
2022/06/20 06:57:11;;;;;;;9.07;2.38;;;;;;;;;;5044239;28;20056;-59
2022/06/20 06:59:40;;;;;;;9.68;2.20;;;;;;;;;;5047133;28;20450;-59
2022/06/20 07:02:16;;;;;;;7.32;2.00;;;;;;;;;;5042413;28;20585;-59
2022/06/20 07:04:49;;;;;;;9.57;2.58;;;;;;;;;;5044351;28;20090;-59
2022/06/20 07:07:18;;;;;;;5.60;1.73;;;;;;;;;;5058997;28;20098;-59
2022/06/20 07:09:48;;;;;;;9.48;1.90;;;;;;;;;;5044598;28;20060;-59
2022/06/20 07:12:25;;;;;;;10.30;2.22;;;;;;;;;;5053449;28;20051;-59
2022/06/20 07:14:58;;;;;;;6.57;1.90;;;;;;;;;;5054554;28;20053;-59
2022/06/20 07:17:40;;;;;;;6.50;1.67;;;;;;;;;;5055278;28;20115;-59
2022/06/20 07:20:06;;;;;;;12.05;2.33;;;;;;;;;;5060712;28;20080;-59
2022/06/20 07:22:33;;;;;;;10.90;2.05;;;;;;;;;;5048930;28;20123;-59
2022/06/20 07:24:59;;;;;;;12.65;2.53;;;;;;;;;;5056970;28;20601;-59
2022/06/20 07:27:35;;;;;;;6.63;2.10;;;;;;;;;;5046795;28;20099;-59
2022/06/20 07:30:07;;;;;;;13.02;2.38;;;;;;;;;;5043749;28;20045;-59
2022/06/20 07:32:37;;;;;;;8.40;2.00;;;;;;;;;;5045506;28;20112;-59
2022/06/20 07:35:07;;;;;;;7.07;1.92;;;;;;;;;;5047653;28;20129;-59
2022/06/20 07:37:37;;;;;;;7.00;2.03;;;;;;;;;;5043599;28;20044;-59
2022/06/20 07:40:03;;;;;;;8.80;2.13;;;;;;;;;;5047830;28;20120;-59
2022/06/20 07:42:35;;;;;;;9.88;1.85;;;;;;;;;;5043819;28;20536;-59
2022/06/20 07:45:06;;;;;;;7.32;1.98;;;;;;;;;;5049373;28;20075;-59
2022/06/20 07:47:36;;;;;;;7.90;2.30;;;;;;;;;;5049112;28;20053;-59
2022/06/20 07:50:05;;;;;;;10.52;2.22;;;;;;;;;;5052149;28;20028;-59
2022/06/20 07:52:36;;;;;;;9.57;2.10;;;;;;;;;;5060489;28;20560;-59
2022/06/20 07:55:04;;;;;;;9.18;2.03;;;;;;;;;;5053559;28;20076;-59
2022/06/20 07:57:30;;;;;;;;;;;;;;;;;;5047562;28;20041;-59
2022/06/20 08:00:03;;;;;;;6.45;1.75;;;;;;;;;;5050296;28;20020;-59
2022/06/20 08:02:36;;;;;;;5.35;1.73;;;;;;;;;;5044471;28;20044;-59
2022/06/20 08:05:04;;;;;;;5.97;1.58;;;;;;;;;;5047700;28;20045;-59
2022/06/20 08:07:41;;;;;;;8.30;1.63;;;;;;;;;;5054397;28;20052;-59
2022/06/20 08:10:12;;;;;;;8.63;3.30;;;;;;;;;;5047053;28;20127;-59
2022/06/20 08:12:55;;;;;;;8.68;1.95;;;;;;;;;;5046560;28;20095;-59
2022/06/20 08:15:23;;;;;;;7.72;1.98;;;;;;;;;;5043278;28;20056;-59
2022/06/20 08:17:50;;;;;;;7.63;1.67;;;;;;;;;;5046523;28;20041;-59
2022/06/20 08:20:18;;;;;;;6.57;1.48;;;;;;;;;;5050938;28;20044;-60
2022/06/20 08:22:47;;;;;;;7.60;1.88;;;;;;;;;;5047193;28;20077;-59
2022/06/20 08:25:16;;;;;;;7.78;2.17;;;;;;;;;;5048247;28;20044;-59
2022/06/20 08:27:44;;;;;;;4.85;1.42;;;;;;;;;;5046271;28;20052;-59
2022/06/20 08:30:13;;;;;;;8.63;1.85;;;;;;;;;;5049489;28;20116;-59
2022/06/20 08:32:46;;;;;;;6.40;1.35;;;;;;;;;;5046000;28;20077;-59
2022/06/20 08:35:17;;;;;;;5.95;1.58;;;;;;;;;;5046833;28;20124;-59
2022/06/20 08:37:47;;;;;;;6.75;1.27;;;;;;;;;;5050454;28;20037;-59
2022/06/20 08:40:25;;;;;;;9.65;1.50;;;;;;;;;;5046622;28;20128;-59
2022/06/20 08:43:03;;;;;;;3.65;1.70;;;;;;;;;;5047352;28;20118;-59
2022/06/20 08:45:33;;;;;;;6.97;1.55;;;;;;;;;;5056876;28;20048;-59
2022/06/20 08:48:18;;;;;;;9.02;1.50;;;;;;;;;;5046793;28;20045;-59
2022/06/20 08:51:09;;;;;;;9.70;1.40;;;;;;;;;;5051885;28;20036;-59
2022/06/20 08:53:36;;;;;;;8.85;1.23;;;;;;;;;;5046240;28;20134;-59
2022/06/20 08:56:23;;;;;;;2.22;0.88;;;;;;;;;;5046139;28;20120;-59
2022/06/20 08:58:56;;;;;;;6.78;1.23;;;;;;;;;;5044277;28;20037;-59
2022/06/20 09:01:34;;;;;;;6.18;0.90;;;;;;;;;;5049415;28;20045;-59
2022/06/20 09:04:00;;;;;;;;;;;;;;;;;;5052250;28;20490;-59
2022/06/20 09:06:35;;;;;;;3.38;0.80;;;;;;;;;;5056532;28;19959;-59
2022/06/20 09:09:14;;;;;;;3.05;0.82;;;;;;;;;;5046268;28;20048;-59
2022/06/20 09:11:40;;;;;;;6.25;1.10;;;;;;;;;;5051742;28;20045;-59
2022/06/20 09:14:09;;;;;;;2.85;0.73;;;;;;;;;;5045736;28;20132;-59
2022/06/20 09:16:38;;;;;;;11.38;1.02;;;;;;;;;;5047620;28;20060;-59
2022/06/20 09:19:04;;;;;;;6.20;0.90;;;;;;;;;;5050403;28;20379;-59
2022/06/20 09:21:31;;;;;;;2.78;1.08;;;;;;;;;;5046434;28;20049;-59
2022/06/20 09:24:13;;;;;;;3.83;1.00;;;;;;;;;;5053100;28;20555;-59
2022/06/20 09:26:54;;;;;;;6.53;1.02;;;;;;;;;;5048620;28;20125;-59
2022/06/20 09:29:21;;;;;;;4.80;1.27;;;;;;;;;;5045575;28;20052;-60
2022/06/20 09:31:59;;;;;;;3.45;0.98;;;;;;;;;;5045155;28;20044;-60
2022/06/20 09:34:29;;;;;;;9.60;1.48;;;;;;;;;;5045621;28;20073;-59
2022/06/20 09:36:55;;;;;;;3.08;1.08;;;;;;;;;;5045862;28;20083;-60
2022/06/20 09:39:32;;;;;;;4.65;1.42;;;;;;;;;;5046589;28;20091;-59
2022/06/20 09:41:59;;;;;;;5.60;1.20;;;;;;;;;;5048475;28;20056;-59
2022/06/20 09:44:30;;;;;;;4.25;1.50;;;;;;;;;;5053229;28;20048;-59
2022/06/20 09:47:18;;;;;;;8.88;1.48;;;;;;;;;;5048475;28;20079;-59
2022/06/20 09:49:45;;;;;;;5.75;1.33;;;;;;;;;;5045616;28;20045;-60
2022/06/20 09:52:17;;;;;;;4.03;1.05;;;;;;;;;;5057704;28;20791;-59
2022/06/20 09:54:43;;;;;;;9.77;1.20;;;;;;;;;;5055208;28;20068;-59
2022/06/20 09:57:11;;;;;;;5.78;1.20;;;;;;;;;;5048225;28;20047;-59
2022/06/20 09:59:49;;;;;;;6.35;1.15;;;;;;;;;;5045050;28;20242;-60
2022/06/20 10:02:25;;;;;;;11.52;1.10;;;;;;;;;;5045863;28;20033;-59
2022/06/20 10:04:58;;;;;;;4.60;1.15;;;;;;;;;;5049157;28;20041;-60
2022/06/20 10:07:30;;;;;;;7.68;1.27;;;;;;;;;;5054698;28;20516;-59
2022/06/20 10:10:08;;;;;;;5.05;1.23;;;;;;;;;;5046423;28;20037;-59
2022/06/20 10:12:43;;;;;;;4.90;1.40;;;;;;;;;;5042521;28;20047;-59
2022/06/20 10:15:09;;;;;;;8.18;1.25;;;;;;;;;;5045037;28;20044;-60
2022/06/20 10:17:35;;;;;;;5.05;1.40;;;;;;;;;;5045351;28;20059;-59
2022/06/20 10:20:18;;;;;;;2.47;1.10;;;;;;;;;;5044845;28;20037;-59
2022/06/20 10:22:52;;;;;;;4.65;0.98;;;;;;;;;;5044972;28;20037;-59
2022/06/20 10:25:25;;;;;;;3.22;1.42;;;;;;;;;;5054747;28;20120;-59
2022/06/20 10:28:02;;;;;;;4.63;1.13;;;;;;;;;;5044660;28;20375;-59
2022/06/20 10:30:35;;;;;;;2.90;0.80;;;;;;;;;;5045014;28;20048;-59
2022/06/20 10:33:15;;;;;;;8.57;1.05;;;;;;;;;;5052150;28;20536;-59
2022/06/20 10:35:44;;;;;;;3.80;1.20;;;;;;;;;;5044692;28;20032;-59
2022/06/20 10:38:22;;;;;;;2.63;0.80;;;;;;;;;;5054916;28;20032;-59
2022/06/20 10:41:07;;;;;;;3.88;0.90;;;;;;;;;;5040359;28;20045;-59
2022/06/20 10:43:43;;;;;;;8.00;1.15;;;;;;;;;;5044392;28;20083;-59
2022/06/20 10:46:24;;;;;;;2.70;0.90;;;;;;;;;;5049809;28;20040;-60
2022/06/20 10:49:10;;;;;;;11.40;1.75;;;;;;;;;;5045937;28;20037;-59
2022/06/20 10:51:52;;;;;;;4.38;0.90;;;;;;;;;;5053155;28;20052;-59
2022/06/20 10:54:32;;;;;;;5.05;0.95;;;;;;;;;;5040406;28;20044;-59
2022/06/20 10:57:08;;;;;;;5.95;0.98;;;;;;;;;;5044693;28;20191;-59
2022/06/20 10:59:55;;;;;;;7.43;1.15;;;;;;;;;;5050261;28;20056;-59
2022/06/20 11:02:21;;;;;;;3.17;0.87;;;;;;;;;;5043146;28;20044;-59
2022/06/20 11:04:55;;;;;;;6.75;0.90;;;;;;;;;;5036011;28;20052;-60
2022/06/20 11:07:26;;;;;;;4.78;1.05;;;;;;;;;;5040747;28;20552;-59
2022/06/20 11:09:52;;;;;;;4.65;1.05;;;;;;;;;;5041098;28;20053;-60
2022/06/20 11:12:28;;;;;;;4.68;1.08;;;;;;;;;;5040405;28;20041;-59
2022/06/20 11:14:58;;;;;;;4.05;0.93;;;;;;;;;;5038321;28;20056;-60
2022/06/20 11:17:35;;;;;;;7.97;1.80;;;;;;;;;;5047875;28;20567;-60
2022/06/20 11:20:16;;;;;;;5.25;1.10;;;;;;;;;;5038354;28;20587;-59
2022/06/20 11:22:45;;;;;;;3.95;1.00;;;;;;;;;;5044469;28;20033;-59
2022/06/20 11:25:14;;;;;;;4.25;1.20;;;;;;;;;;5051511;28;20077;-59
2022/06/20 11:27:40;;;;;;;4.68;1.17;;;;;;;;;;5043848;28;20029;-59
2022/06/20 11:30:14;;;;;;;7.00;1.30;;;;;;;;;;5046222;28;20045;-59
2022/06/20 11:32:51;;;;;;;9.23;1.15;;;;;;;;;;5043405;28;20735;-59
2022/06/20 11:35:18;;;;;;;6.30;0.88;;;;;;;;;;5046039;28;20047;-59
2022/06/20 11:37:44;;;;;;;4.53;0.93;;;;;;;;;;5049354;28;20092;-60
2022/06/20 11:40:13;;;;;;;17.58;1.67;;;;;;;;;;5046977;28;20877;-59
2022/06/20 11:42:39;;;;;;;6.82;1.17;;;;;;;;;;5043386;28;20037;-60
2022/06/20 11:45:21;;;;;;;3.80;0.90;;;;;;;;;;5053441;28;20036;-59
2022/06/20 11:48:06;;;;;;;3.42;1.08;;;;;;;;;;5049617;28;20457;-60
2022/06/20 11:50:46;;;;;;;4.35;1.10;;;;;;;;;;5046865;28;20098;-60
2022/06/20 11:53:12;;;;;;;10.00;1.40;;;;;;;;;;5051934;28;20548;-59
2022/06/20 11:55:46;;;;;;;3.40;1.08;;;;;;;;;;5042946;28;20045;-59
2022/06/20 11:58:17;;;;;;;5.00;1.40;;;;;;;;;;5052670;28;20095;-59
2022/06/20 12:00:48;;;;;;;8.48;2.15;;;;;;;;;;5045558;28;20132;-59
2022/06/20 12:03:33;;;;;;;7.53;1.35;;;;;;;;;;5046217;28;20033;-59
2022/06/20 12:06:31;;;;;;;3.97;1.20;;;;;;;;;;5054420;28;20343;-59
2022/06/20 12:09:00;;;;;;;5.05;1.10;;;;;;;;;;5043095;28;20048;-59
2022/06/20 12:11:50;;;;;;;8.82;1.55;;;;;;;;;;5043860;28;20140;-60
2022/06/20 12:14:24;;;;;;;9.50;1.42;;;;;;;;;;5043500;28;20053;-59
2022/06/20 12:16:56;;;;;;;6.80;2.00;;;;;;;;;;5042651;28;20049;-59
2022/06/20 12:25:23;;;;;;;4.35;1.30;;;;;;;;;;5050341;28;20486;-59
2022/06/20 12:27:50;;;;;;;4.65;1.20;;;;;;;;;;5042891;28;20079;-60
2022/06/20 12:30:16;;;;;;;5.05;1.58;;;;;;;;;;5044832;28;20032;-59
2022/06/20 12:32:45;;;;;;;6.68;1.48;;;;;;;;;;5047139;28;20247;-59
2022/06/20 12:35:28;;;;;;;1.42;0.75;;;;;;;;;;5046968;28;20059;-59
2022/06/20 12:37:54;;;;;;;8.85;1.23;;;;;;;;;;5052744;28;20460;-60
2022/06/20 12:40:24;;;;;;;8.60;1.58;;;;;;;;;;5049599;28;20041;-60
2022/06/20 12:42:50;;;;;;;7.38;1.20;;;;;;;;;;5046306;28;20051;-60
2022/06/20 12:45:39;;;;;;;3.08;1.15;;;;;;;;;;5049951;28;20044;-59
2022/06/20 12:48:06;;;;;;;2.85;0.75;;;;;;;;;;5049344;28;20053;-60
2022/06/20 12:50:39;;;;;;;4.93;1.10;;;;;;;;;;5033064;28;20140;-61
2022/06/20 12:53:06;;;;;;;5.57;1.17;;;;;;;;;;5044887;28;20063;-60
2022/06/20 12:55:43;;;;;;;9.25;1.13;;;;;;;;;;5045799;28;20452;-61
2022/06/20 12:58:13;;;;;;;2.55;1.05;;;;;;;;;;5046063;28;20124;-60
2022/06/20 13:00:39;;;;;;;3.33;1.08;;;;;;;;;;5044843;28;20482;-60
2022/06/20 13:03:11;;;;;;;5.20;1.00;;;;;;;;;;5045394;28;20080;-60
2022/06/20 13:05:45;;;;;;;7.35;1.20;;;;;;;;;;5050306;28;20460;-60
2022/06/20 13:08:14;;;;;;;4.93;1.02;;;;;;;;;;5047047;28;20041;-59
2022/06/20 13:10:40;;;;;;;3.00;0.90;;;;;;;;;;5048856;28;20044;-59
2022/06/20 13:13:14;;;;;;;6.97;0.90;;;;;;;;;;5049722;28;20052;-59
2022/06/20 13:15:41;;;;;;;3.30;1.00;;;;;;;;;;5050441;28;20084;-59
2022/06/20 13:18:17;;;;;;;4.93;1.17;;;;;;;;;;5051162;28;20052;-59
2022/06/20 13:20:54;;;;;;;7.82;1.10;;;;;;;;;;5053003;28;20132;-59
2022/06/20 13:23:20;;;;;;;4.93;1.00;;;;;;;;;;5044944;28;20037;-60
2022/06/20 13:25:51;;;;;;;5.63;1.08;;;;;;;;;;5048175;28;20130;-60
2022/06/20 13:28:32;;;;;;;5.07;1.00;;;;;;;;;;5037614;28;20037;-60
2022/06/20 13:31:12;;;;;;;3.75;0.93;;;;;;;;;;5046307;28;20036;-61
2022/06/20 13:33:43;;;;;;;4.07;1.10;;;;;;;;;;5044371;28;20049;-60
2022/06/20 13:36:27;;;;;;;4.10;0.70;;;;;;;;;;5046408;28;20045;-60
2022/06/20 13:39:03;;;;;;;2.20;0.80;;;;;;;;;;5047090;28;20090;-60
2022/06/20 13:41:36;;;;;;;4.95;1.13;;;;;;;;;;5043327;28;20087;-60
2022/06/20 13:44:06;;;;;;;6.55;1.42;;;;;;;;;;5048973;28;20037;-60
2022/06/20 13:46:45;;;;;;;3.70;0.80;;;;;;;;;;5047055;28;20056;-60
2022/06/20 13:49:20;;;;;;;5.50;1.10;;;;;;;;;;5052933;28;20521;-60
2022/06/20 13:51:50;;;;;;;3.88;1.00;;;;;;;;;;5046978;28;20048;-59
2022/06/20 13:54:28;;;;;;;3.50;1.10;;;;;;;;;;5055408;28;20063;-59
2022/06/20 13:56:54;;;;;;;3.40;1.25;;;;;;;;;;5053496;28;20628;-59
2022/06/20 13:59:23;;;;;;;4.18;0.85;;;;;;;;;;5055221;28;20511;-60
2022/06/20 14:01:57;;;;;;;4.82;0.93;;;;;;;;;;5051849;28;20041;-59
2022/06/20 14:04:23;;;;;;;3.03;1.15;;;;;;;;;;5052659;28;20055;-59
2022/06/20 14:06:56;;;;;;;2.30;0.93;;;;;;;;;;5051856;28;20040;-59
2022/06/20 14:09:26;;;;;;;3.80;1.23;;;;;;;;;;5046900;28;20505;-59
2022/06/20 14:11:55;;;;;;;9.52;1.70;;;;;;;;;;5052354;28;20100;-59
2022/06/20 14:14:29;;;;;;;4.80;1.27;;;;;;;;;;5054605;28;20072;-59
2022/06/20 14:16:58;;;;;;;3.65;0.98;;;;;;;;;;5049678;28;20044;-59
2022/06/20 14:19:29;;;;;;;5.47;1.50;;;;;;;;;;5051070;28;20047;-59
2022/06/20 14:21:57;;;;;;;5.43;1.27;;;;;;;;;;5049663;28;20231;-58
2022/06/20 14:24:27;;;;;;;4.95;1.33;;;;;;;;;;5046827;28;20040;-59
2022/06/20 14:27:04;;;;;;;2.97;1.10;;;;;;;;;;5044363;28;20056;-59
2022/06/20 14:29:33;;;;;;;5.55;1.25;;;;;;;;;;5042919;28;20045;-59
2022/06/20 14:32:06;;;;;;;4.22;1.00;;;;;;;;;;5044461;28;20037;-58
2022/06/20 14:34:40;;;;;;;4.07;1.08;;;;;;;;;;5044216;28;20127;-59
2022/06/20 14:37:15;;;;;;;2.88;1.17;;;;;;;;;;5047390;28;20049;-59
2022/06/20 14:39:42;;;;;;;5.13;1.40;;;;;;;;;;5045359;28;20538;-59
2022/06/20 14:42:11;;;;;;;2.45;1.08;;;;;;;;;;5044234;28;21631;-59
2022/06/20 14:44:41;;;;;;;5.68;1.50;;;;;;;;;;5048018;28;20131;-59
2022/06/20 14:47:18;;;;;;;3.85;1.00;;;;;;;;;;5043921;28;20041;-59
2022/06/20 14:49:48;;;;;;;4.95;1.30;;;;;;;;;;5047465;28;20044;-59
2022/06/20 14:52:21;;;;;;;6.85;1.10;;;;;;;;;;5047336;28;20049;-59
2022/06/20 14:55:02;;;;;;;3.15;1.10;;;;;;;;;;5034775;28;20082;-59
2022/06/20 14:57:33;;;;;;;8.90;1.40;;;;;;;;;;5024695;28;20045;-59
2022/06/20 15:00:09;;;;;;;5.68;1.00;;;;;;;;;;5033480;28;20160;-59
2022/06/20 15:02:51;;;;;;;2.85;1.08;;;;;;;;;;5034661;28;20037;-59
2022/06/20 15:05:22;;;;;;;4.32;0.90;;;;;;;;;;5033428;28;20088;-60
2022/06/20 15:07:51;;;;;;;3.58;1.02;;;;;;;;;;5029488;28;20037;-60
2022/06/20 15:10:21;;;;;;;4.32;1.02;;;;;;;;;;5034942;28;20180;-59
2022/06/20 15:12:51;;;;;;;2.55;0.95;;;;;;;;;;5032119;28;20094;-60
2022/06/20 15:15:29;;;;;;;2.70;0.90;;;;;;;;;;5023044;28;20084;-60